Terminal Aerodrome Forecast
Issued by NWS Charleston, WV

Home | Current Version | Previous Version | Text Only | Print | Product List | Glossary On
Versions: 1 2 3 4 5 6 7 8 9 10 11 12 13 14 15 16 17 18 19 20 21 22 23 24
109
FTUS41 KRLX 271737
TAFPKB
TAF
KPKB 271737Z 2718/2818 24006KT P6SM FEW030 SCT040
     FM272000 25004KT P6SM VCSH SCT050
     FM272200 24004KT P6SM SCT200
     FM280500 19003KT 3SM BR SCT200
     FM280700 00000KT 1/4SM FG VV001
     FM281300 00000KT 4SM BR SCT002 SCT250
     FM281400 00000KT P6SM SCT200=

USA.gov is the U.S. government's official web portal to all federal, state and local government web resources and services.